sensor_id;sensor_type;location;lat;lon;timestamp;pressure;altitude;pressure_sealevel;temperature;humidity
10392;BME280;5242;49.244;6.774;2023-04-21T00:04:58;99167.59;;;3.47;81.19
10392;BME280;5242;49.244;6.774;2023-04-21T00:12:50;99170.88;;;3.26;83.41
10392;BME280;5242;49.244;6.774;2023-04-21T00:20:43;99167.41;;;3.17;83.74
10392;BME280;5242;49.244;6.774;2023-04-21T00:28:35;99158.50;;;3.08;82.59
10392;BME280;5242;49.244;6.774;2023-04-21T00:36:27;99159.75;;;3.02;83.69
10392;BME280;5242;49.244;6.774;2023-04-21T00:44:19;99154.81;;;2.87;82.22
10392;BME280;5242;49.244;6.774;2023-04-21T00:52:12;99144.63;;;2.75;83.39
10392;BME280;5242;49.244;6.774;2023-04-21T01:00:05;99144.13;;;2.64;84.44
10392;BME280;5242;49.244;6.774;2023-04-21T01:08:00;99139.09;;;2.40;82.89
10392;BME280;5242;49.244;6.774;2023-04-21T01:15:52;99139.53;;;2.33;84.64
10392;BME280;5242;49.244;6.774;2023-04-21T01:23:44;99148.81;;;2.27;84.84
10392;BME280;5242;49.244;6.774;2023-04-21T01:31:36;99148.59;;;2.15;84.37
10392;BME280;5242;49.244;6.774;2023-04-21T01:39:28;99142.63;;;1.95;84.67
10392;BME280;5242;49.244;6.774;2023-04-21T01:47:20;99146.53;;;1.89;84.29
10392;BME280;5242;49.244;6.774;2023-04-21T01:55:12;99140.91;;;1.77;84.19
10392;BME280;5242;49.244;6.774;2023-04-21T02:03:05;99137.22;;;1.73;85.53
10392;BME280;5242;49.244;6.774;2023-04-21T02:11:00;99131.50;;;1.66;85.19
10392;BME280;5242;49.244;6.774;2023-04-21T02:18:56;99130.25;;;1.49;84.08
10392;BME280;5242;49.244;6.774;2023-04-21T02:26:47;99133.66;;;1.41;85.57
10392;BME280;5242;49.244;6.774;2023-04-21T02:34:39;99129.59;;;1.30;85.72
10392;BME280;5242;49.244;6.774;2023-04-21T02:42:32;99120.59;;;1.26;86.44
10392;BME280;5242;49.244;6.774;2023-04-21T02:50:25;99120.19;;;1.19;86.51
10392;BME280;5242;49.244;6.774;2023-04-21T02:58:17;99110.19;;;1.11;86.55
10392;BME280;5242;49.244;6.774;2023-04-21T03:06:09;99117.13;;;1.12;86.33
10392;BME280;5242;49.244;6.774;2023-04-21T03:14:00;99121.41;;;1.13;86.41
10392;BME280;5242;49.244;6.774;2023-04-21T03:21:52;99127.78;;;1.03;85.96
10392;BME280;5242;49.244;6.774;2023-04-21T03:29:44;99135.81;;;1.03;88.76
10392;BME280;5242;49.244;6.774;2023-04-21T03:37:36;99142.97;;;1.07;88.25
10392;BME280;5242;49.244;6.774;2023-04-21T03:45:28;99145.34;;;1.09;88.26
10392;BME280;5242;49.244;6.774;2023-04-21T03:53:19;99144.53;;;1.08;88.71
10392;BME280;5242;49.244;6.774;2023-04-21T04:01:11;99151.31;;;1.06;88.34
10392;BME280;5242;49.244;6.774;2023-04-21T04:09:03;99144.34;;;0.91;88.63
10392;BME280;5242;49.244;6.774;2023-04-21T04:16:55;99146.25;;;0.77;87.13
10392;BME280;5242;49.244;6.774;2023-04-21T04:24:46;99139.78;;;0.78;88.26
10392;BME280;5242;49.244;6.774;2023-04-21T04:32:39;99141.88;;;0.81;88.51
10392;BME280;5242;49.244;6.774;2023-04-21T04:40:32;99144.06;;;0.79;88.71
10392;BME280;5242;49.244;6.774;2023-04-21T04:48:24;99144.75;;;0.71;89.59
10392;BME280;5242;49.244;6.774;2023-04-21T04:56:16;99143.16;;;0.70;87.84
10392;BME280;5242;49.244;6.774;2023-04-21T05:04:08;99151.53;;;0.82;88.37
10392;BME280;5242;49.244;6.774;2023-04-21T05:12:00;99151.69;;;0.99;89.01
10392;BME280;5242;49.244;6.774;2023-04-21T05:19:52;99156.66;;;1.20;89.04
10392;BME280;5242;49.244;6.774;2023-04-21T05:27:44;99155.91;;;1.42;88.42
10392;BME280;5242;49.244;6.774;2023-04-21T05:35:36;99160.72;;;1.67;90.05
10392;BME280;5242;49.244;6.774;2023-04-21T05:43:29;99157.63;;;1.96;89.52
10392;BME280;5242;49.244;6.774;2023-04-21T05:51:23;99157.84;;;2.31;88.79
10392;BME280;5242;49.244;6.774;2023-04-21T05:59:15;99161.19;;;2.68;89.86
10392;BME280;5242;49.244;6.774;2023-04-21T06:07:08;99152.81;;;3.18;88.25
10392;BME280;5242;49.244;6.774;2023-04-21T06:15:00;99147.00;;;3.86;87.93
10392;BME280;5242;49.244;6.774;2023-04-21T06:22:52;99147.81;;;4.68;88.70
10392;BME280;5242;49.244;6.774;2023-04-21T06:30:44;99137.72;;;5.66;86.44
10392;BME280;5242;49.244;6.774;2023-04-21T06:38:36;99136.34;;;6.60;86.34
10392;BME280;5242;49.244;6.774;2023-04-21T06:46:30;99147.88;;;7.06;83.72
10392;BME280;5242;49.244;6.774;2023-04-21T06:54:22;99136.97;;;7.55;83.92
10392;BME280;5242;49.244;6.774;2023-04-21T07:02:14;99133.84;;;8.10;82.16
10392;BME280;5242;49.244;6.774;2023-04-21T07:10:06;99130.28;;;8.49;78.99
10392;BME280;5242;49.244;6.774;2023-04-21T07:17:58;99107.16;;;8.87;77.79
10392;BME280;5242;49.244;6.774;2023-04-21T07:25:50;99107.09;;;9.19;76.70
10392;BME280;5242;49.244;6.774;2023-04-21T07:33:42;99077.09;;;9.70;72.66
10392;BME280;5242;49.244;6.774;2023-04-21T07:41:34;99093.13;;;9.95;70.34
10392;BME280;5242;49.244;6.774;2023-04-21T07:49:26;99087.91;;;10.48;67.37
10392;BME280;5242;49.244;6.774;2023-04-21T07:57:17;99095.69;;;11.26;64.26
10392;BME280;5242;49.244;6.774;2023-04-21T08:05:09;99075.63;;;12.43;60.72
10392;BME280;5242;49.244;6.774;2023-04-21T08:13:01;99069.41;;;13.70;58.59
10392;BME280;5242;49.244;6.774;2023-04-21T08:20:56;99053.81;;;15.25;53.55
10392;BME280;5242;49.244;6.774;2023-04-21T08:28:48;99062.34;;;15.56;49.55
10392;BME280;5242;49.244;6.774;2023-04-21T08:36:41;99044.91;;;15.98;47.94
10392;BME280;5242;49.244;6.774;2023-04-21T08:44:33;99047.09;;;16.73;42.96
10392;BME280;5242;49.244;6.774;2023-04-21T08:52:25;99021.78;;;17.31;41.07
10392;BME280;5242;49.244;6.774;2023-04-21T09:00:17;99009.28;;;17.88;41.49
10392;BME280;5242;49.244;6.774;2023-04-21T09:08:10;99007.41;;;18.55;37.53
10392;BME280;5242;49.244;6.774;2023-04-21T09:16:04;98995.81;;;19.11;38.03
10392;BME280;5242;49.244;6.774;2023-04-21T09:24:03;99000.38;;;19.94;35.89
10392;BME280;5242;49.244;6.774;2023-04-21T09:31:57;99019.34;;;20.45;36.22
10392;BME280;5242;49.244;6.774;2023-04-21T09:39:48;98988.78;;;20.81;34.95
10392;BME280;5242;49.244;6.774;2023-04-21T09:47:56;98998.22;;;21.55;32.01
10392;BME280;5242;49.244;6.774;2023-04-21T09:55:50;98981.41;;;21.62;32.52
10392;BME280;5242;49.244;6.774;2023-04-21T10:03:43;98984.53;;;21.89;31.23
10392;BME280;5242;49.244;6.774;2023-04-21T10:11:36;98976.75;;;22.10;30.85
10392;BME280;5242;49.244;6.774;2023-04-21T10:19:29;98964.13;;;22.56;31.16
10392;BME280;5242;49.244;6.774;2023-04-21T10:27:39;98949.88;;;23.02;30.22
10392;BME280;5242;49.244;6.774;2023-04-21T10:36:00;98952.03;;;22.63;30.86
10392;BME280;5242;49.244;6.774;2023-04-21T10:43:56;98929.97;;;23.57;30.66
10392;BME280;5242;49.244;6.774;2023-04-21T10:59:56;98918.00;;;23.07;30.87
10392;BME280;5242;49.244;6.774;2023-04-21T11:07:48;98899.91;;;24.33;28.55
10392;BME280;5242;49.244;6.774;2023-04-21T11:15:40;98894.84;;;22.88;30.21
10392;BME280;5242;49.244;6.774;2023-04-21T11:23:31;98893.81;;;21.26;32.23
10392;BME280;5242;49.244;6.774;2023-04-21T11:31:27;98887.75;;;20.14;34.04
10392;BME280;5242;49.244;6.774;2023-04-21T11:39:20;98878.91;;;19.38;34.58
10392;BME280;5242;49.244;6.774;2023-04-21T11:47:18;98887.25;;;17.91;36.55
10392;BME280;5242;49.244;6.774;2023-04-21T11:55:12;98900.88;;;17.16;37.95
10392;BME280;5242;49.244;6.774;2023-04-21T12:03:07;98913.56;;;16.72;38.94
10392;BME280;5242;49.244;6.774;2023-04-21T12:11:01;98937.09;;;16.36;40.28
10392;BME280;5242;49.244;6.774;2023-04-21T12:18:56;98984.56;;;15.88;46.42
10392;BME280;5242;49.244;6.774;2023-04-21T12:26:48;98948.75;;;15.35;46.51
10392;BME280;5242;49.244;6.774;2023-04-21T12:34:40;98912.50;;;15.69;54.55
10392;BME280;5242;49.244;6.774;2023-04-21T12:42:32;98906.59;;;18.98;45.58
10392;BME280;5242;49.244;6.774;2023-04-21T12:50:27;98893.66;;;18.95;47.03
10392;BME280;5242;49.244;6.774;2023-04-21T12:58:19;98890.47;;;20.47;44.02
10392;BME280;5242;49.244;6.774;2023-04-21T13:06:11;98877.91;;;20.88;39.93
10392;BME280;5242;49.244;6.774;2023-04-21T13:14:03;98887.38;;;19.47;43.27
10392;BME280;5242;49.244;6.774;2023-04-21T13:21:55;98857.44;;;18.93;42.36
10392;BME280;5242;49.244;6.774;2023-04-21T13:29:47;98853.69;;;20.34;41.53
10392;BME280;5242;49.244;6.774;2023-04-21T13:37:39;98845.47;;;20.89;39.25
10392;BME280;5242;49.244;6.774;2023-04-21T13:45:31;98811.75;;;21.19;39.40
10392;BME280;5242;49.244;6.774;2023-04-21T13:53:23;98800.97;;;21.34;34.72
10392;BME280;5242;49.244;6.774;2023-04-21T14:01:15;98800.22;;;20.95;35.72
10392;BME280;5242;49.244;6.774;2023-04-21T14:09:08;98782.59;;;20.05;33.49
10392;BME280;5242;49.244;6.774;2023-04-21T14:17:01;98786.78;;;19.15;33.51
10392;BME280;5242;49.244;6.774;2023-04-21T14:24:53;98774.00;;;19.05;33.37
10392;BME280;5242;49.244;6.774;2023-04-21T14:32:44;98770.38;;;18.72;34.55
10392;BME280;5242;49.244;6.774;2023-04-21T14:40:36;98770.38;;;18.52;35.69
10392;BME280;5242;49.244;6.774;2023-04-21T14:48:28;98773.13;;;18.12;36.98
10392;BME280;5242;49.244;6.774;2023-04-21T14:56:20;98793.97;;;17.66;38.00
10392;BME280;5242;49.244;6.774;2023-04-21T15:04:12;98805.06;;;17.11;43.41
10392;BME280;5242;49.244;6.774;2023-04-21T15:12:05;98834.78;;;16.24;51.11
10392;BME280;5242;49.244;6.774;2023-04-21T15:19:57;98837.63;;;15.72;53.05
10392;BME280;5242;49.244;6.774;2023-04-21T15:27:48;98837.41;;;15.45;52.58
10392;BME280;5242;49.244;6.774;2023-04-21T15:35:40;98791.94;;;15.40;54.67
10392;BME280;5242;49.244;6.774;2023-04-21T15:43:32;98788.53;;;15.29;52.43
10392;BME280;5242;49.244;6.774;2023-04-21T15:51:25;98784.31;;;15.10;57.64
10392;BME280;5242;49.244;6.774;2023-04-21T15:59:18;98767.09;;;15.10;60.71
10392;BME280;5242;49.244;6.774;2023-04-21T16:07:10;98753.16;;;14.86;60.51
10392;BME280;5242;49.244;6.774;2023-04-21T16:15:03;98730.31;;;15.04;58.06
10392;BME280;5242;49.244;6.774;2023-04-21T16:23:13;98725.22;;;15.51;55.12
10392;BME280;5242;49.244;6.774;2023-04-21T16:31:06;98714.09;;;15.72;56.30
10392;BME280;5242;49.244;6.774;2023-04-21T16:38:58;98708.88;;;15.85;54.07
10392;BME280;5242;49.244;6.774;2023-04-21T16:46:50;98706.81;;;15.93;54.86
10392;BME280;5242;49.244;6.774;2023-04-21T16:54:42;98703.94;;;16.03;55.63
10392;BME280;5242;49.244;6.774;2023-04-21T17:02:33;98711.50;;;15.96;54.04
10392;BME280;5242;49.244;6.774;2023-04-21T17:10:26;98700.38;;;15.69;55.38
10392;BME280;5242;49.244;6.774;2023-04-21T17:18:17;98700.16;;;15.49;56.03
10392;BME280;5242;49.244;6.774;2023-04-21T17:26:09;98697.09;;;15.43;56.47
10392;BME280;5242;49.244;6.774;2023-04-21T17:34:03;98697.69;;;15.61;55.87
10392;BME280;5242;49.244;6.774;2023-04-21T17:41:55;98704.28;;;15.71;56.45
10392;BME280;5242;49.244;6.774;2023-04-21T17:49:47;98702.69;;;15.74;57.43
10392;BME280;5242;49.244;6.774;2023-04-21T17:57:39;98714.44;;;15.74;57.57
10392;BME280;5242;49.244;6.774;2023-04-21T18:05:31;98712.53;;;15.71;58.75
10392;BME280;5242;49.244;6.774;2023-04-21T18:13:22;98726.00;;;15.55;62.49
10392;BME280;5242;49.244;6.774;2023-04-21T18:21:14;98732.47;;;15.30;61.74
10392;BME280;5242;49.244;6.774;2023-04-21T18:29:06;98743.97;;;15.11;64.10
10392;BME280;5242;49.244;6.774;2023-04-21T18:36:58;98744.94;;;14.86;61.44
10392;BME280;5242;49.244;6.774;2023-04-21T18:44:50;98758.41;;;14.55;64.71
10392;BME280;5242;49.244;6.774;2023-04-21T18:52:42;98760.84;;;14.25;68.31
10392;BME280;5242;49.244;6.774;2023-04-21T19:00:34;98763.28;;;13.94;66.23
10392;BME280;5242;49.244;6.774;2023-04-21T19:08:29;98775.06;;;13.66;67.70
10392;BME280;5242;49.244;6.774;2023-04-21T19:16:33;98776.22;;;13.43;68.18
10392;BME280;5242;49.244;6.774;2023-04-21T19:24:25;98776.19;;;13.15;67.53
10392;BME280;5242;49.244;6.774;2023-04-21T19:32:17;98766.75;;;12.91;70.20
10392;BME280;5242;49.244;6.774;2023-04-21T19:40:09;98765.16;;;12.68;72.00
10392;BME280;5242;49.244;6.774;2023-04-21T19:48:01;98767.44;;;12.52;71.20
10392;BME280;5242;49.244;6.774;2023-04-21T19:55:53;98767.41;;;12.45;72.84
10392;BME280;5242;49.244;6.774;2023-04-21T20:03:44;98776.69;;;12.22;73.86
10392;BME280;5242;49.244;6.774;2023-04-21T20:11:38;98771.94;;;12.08;76.19
10392;BME280;5242;49.244;6.774;2023-04-21T20:19:30;98768.75;;;11.95;75.83
10392;BME280;5242;49.244;6.774;2023-04-21T20:27:23;98772.16;;;11.85;75.16
10392;BME280;5242;49.244;6.774;2023-04-21T20:35:15;98758.81;;;11.69;76.64
10392;BME280;5242;49.244;6.774;2023-04-21T20:43:07;98769.19;;;11.49;79.44
10392;BME280;5242;49.244;6.774;2023-04-21T20:51:01;98757.34;;;11.31;76.42
10392;BME280;5242;49.244;6.774;2023-04-21T20:58:53;98760.44;;;11.26;77.25
10392;BME280;5242;49.244;6.774;2023-04-21T21:06:45;98768.59;;;11.22;77.50
10392;BME280;5242;49.244;6.774;2023-04-21T21:14:36;98769.69;;;11.18;75.93
10392;BME280;5242;49.244;6.774;2023-04-21T21:22:28;98768.41;;;11.04;76.87
10392;BME280;5242;49.244;6.774;2023-04-21T21:30:21;98778.00;;;10.91;77.06
10392;BME280;5242;49.244;6.774;2023-04-21T21:38:13;98783.41;;;10.87;78.17
10392;BME280;5242;49.244;6.774;2023-04-21T21:46:05;98788.00;;;10.80;79.19
10392;BME280;5242;49.244;6.774;2023-04-21T21:53:57;98774.66;;;10.68;77.76
10392;BME280;5242;49.244;6.774;2023-04-21T22:01:49;98778.78;;;10.54;80.45
10392;BME280;5242;49.244;6.774;2023-04-21T22:09:41;98780.34;;;10.55;79.83
10392;BME280;5242;49.244;6.774;2023-04-21T22:17:34;98790.88;;;10.57;80.37
10392;BME280;5242;49.244;6.774;2023-04-21T22:25:26;98778.25;;;10.45;77.30
10392;BME280;5242;49.244;6.774;2023-04-21T22:33:18;98783.59;;;10.34;82.38
10392;BME280;5242;49.244;6.774;2023-04-21T22:41:10;98789.66;;;10.24;82.20
10392;BME280;5242;49.244;6.774;2023-04-21T22:49:02;98794.31;;;10.23;80.42
10392;BME280;5242;49.244;6.774;2023-04-21T22:56:54;98789.19;;;10.18;82.93
10392;BME280;5242;49.244;6.774;2023-04-21T23:04:47;98784.53;;;10.19;82.10
10392;BME280;5242;49.244;6.774;2023-04-21T23:12:38;98788.00;;;10.16;80.17
10392;BME280;5242;49.244;6.774;2023-04-21T23:20:30;98780.88;;;10.08;84.33
10392;BME280;5242;49.244;6.774;2023-04-21T23:28:22;98780.00;;;10.00;80.63
10392;BME280;5242;49.244;6.774;2023-04-21T23:36:14;98783.75;;;9.92;85.80
10392;BME280;5242;49.244;6.774;2023-04-21T23:44:06;98780.56;;;9.86;83.83
10392;BME280;5242;49.244;6.774;2023-04-21T23:51:58;98780.84;;;9.77;82.36
10392;BME280;5242;49.244;6.774;2023-04-21T23:59:50;98781.47;;;9.67;83.92
